Time;durP1;ratioP1;P1;durP2;ratioP2;P2;SDS_P1;SDS_P2;PMS_P1;PMS_P2;Temp;Humidity;BMP_temperature;BMP_pressure;BME280_temperature;BME280_humidity;BME280_pressure;Samples;Min_cycle;Max_cycle;Signal;HPM_P1;HPM_P2
2021/12/23 00:00:50;;;;;;;15.07;6.67;;;-17.00;92.70;;;;;;2219214;64;20153;-52
2021/12/23 00:03:22;;;;;;;19.63;7.93;;;-17.00;92.80;;;;;;2219004;64;20525;-52
2021/12/23 00:05:54;;;;;;;18.20;6.80;;;-16.90;92.70;;;;;;2216126;64;20089;-52
2021/12/23 00:08:26;;;;;;;16.47;6.27;;;-16.90;92.80;;;;;;2219158;64;20093;-57
2021/12/23 00:10:58;;;;;;;22.17;7.27;;;-16.90;93.00;;;;;;2219066;64;20085;-56
2021/12/23 00:13:30;;;;;;;18.87;8.60;;;-16.90;92.90;;;;;;2219111;64;20081;-49
2021/12/23 00:16:17;;;;;;;16.70;6.10;;;-16.90;92.70;;;;;;2216093;64;20111;-50
2021/12/23 00:18:57;;;;;;;16.50;6.93;;;-16.90;93.00;;;;;;2215876;64;20101;-52
2021/12/23 00:24:23;;;;;;;16.63;6.00;;;-16.90;93.00;;;;;;2213687;64;20100;-54
2021/12/23 00:26:55;;;;;;;20.17;7.40;;;-16.80;93.00;;;;;;2219774;64;20097;-51
2021/12/23 00:29:27;;;;;;;14.23;6.00;;;-16.80;92.80;;;;;;2219393;64;20138;-49
2021/12/23 00:31:59;;;;;;;14.63;3.67;;;-16.80;92.80;;;;;;2219904;64;20430;-50
2021/12/23 00:34:31;;;;;;;18.63;4.93;;;-16.80;93.10;;;;;;2216795;64;20093;-50
2021/12/23 00:37:06;;;;;;;8.57;4.00;;;-16.70;93.00;;;;;;2219903;64;20104;-50
2021/12/23 00:39:38;;;;;;;15.93;6.47;;;-16.70;92.90;;;;;;2216854;64;20097;-51
2021/12/23 00:42:10;;;;;;;15.03;5.47;;;-16.70;92.70;;;;;;2217509;64;20169;-51
2021/12/23 00:44:47;;;;;;;13.83;5.53;;;-16.60;92.80;;;;;;2223848;64;20085;-49
2021/12/23 00:47:18;;;;;;;12.67;4.60;;;-16.60;92.80;;;;;;2220599;64;20645;-49
2021/12/23 00:49:50;;;;;;;11.77;4.53;;;-16.70;92.90;;;;;;2220556;64;20155;-49
2021/12/23 00:52:33;;;;;;;4.87;2.37;;;-16.70;92.90;;;;;;2220668;64;20095;-50
2021/12/23 00:55:06;;;;;;;3.03;1.47;;;-16.70;92.80;;;;;;2220507;64;20108;-53
2021/12/23 00:57:41;;;;;;;9.80;3.33;;;-16.60;92.80;;;;;;2220883;64;20456;-48
2021/12/23 01:00:18;;;;;;;5.27;2.37;;;-16.60;92.80;;;;;;2217344;64;20085;-51
2021/12/23 01:02:50;;;;;;;12.30;4.17;;;-16.50;93.10;;;;;;2211635;64;20187;-51
2021/12/23 01:05:23;;;;;;;11.70;5.23;;;-16.60;92.80;;;;;;2211883;64;20171;-48
2021/12/23 01:07:55;;;;;;;8.03;2.63;;;-16.70;92.50;;;;;;2211808;64;20200;-50
2021/12/23 01:10:27;;;;;;;8.20;3.77;;;-16.80;92.90;;;;;;2211743;64;20100;-50
2021/12/23 01:13:02;;;;;;;9.97;3.63;;;-16.80;93.00;;;;;;2211826;64;20105;-46
2021/12/23 01:18:19;;;;;;;10.57;4.30;;;-16.80;92.60;;;;;;2208592;64;20521;-46
2021/12/23 01:21:03;;;;;;;13.60;3.50;;;-16.90;92.20;;;;;;2211882;64;20085;-44
2021/12/23 01:23:40;;;;;;;7.13;2.87;;;-16.90;92.40;;;;;;2211658;64;20098;-46
2021/12/23 01:26:18;;;;;;;10.23;4.13;;;-16.90;92.70;;;;;;2211642;64;20473;-44
2021/12/23 01:28:56;;;;;;;11.37;5.07;;;-17.00;92.40;;;;;;2211511;64;20082;-44
2021/12/23 01:31:29;;;;;;;6.87;1.80;;;-16.90;92.40;;;;;;2211694;64;20663;-46
2021/12/23 01:34:01;;;;;;;6.80;1.67;;;-17.00;92.90;;;;;;2217593;64;20112;-45
2021/12/23 01:36:33;;;;;;;9.80;3.80;;;-17.00;93.00;;;;;;2220308;64;20099;-44
2021/12/23 01:39:05;;;;;;;7.20;2.20;;;-17.10;92.70;;;;;;2220205;64;20107;-45
2021/12/23 01:41:36;;;;;;;10.43;3.33;;;-17.00;92.30;;;;;;2220199;64;20123;-45
2021/12/23 01:44:08;;;;;;;5.60;1.83;;;-17.10;92.40;;;;;;2220210;64;20092;-46
2021/12/23 01:46:42;;;;;;;4.60;1.63;;;-17.20;92.80;;;;;;2220316;64;20192;-45
2021/12/23 01:49:14;;;;;;;4.75;2.08;;;-17.10;92.70;;;;;;2220111;64;20306;-47
2021/12/23 01:51:45;;;;;;;13.37;4.50;;;-17.10;92.40;;;;;;2220593;64;20099;-46
2021/12/23 01:54:18;;;;;;;11.30;4.00;;;-17.10;92.60;;;;;;2219351;64;20097;-44
2021/12/23 01:56:50;;;;;;;7.73;1.53;;;-17.30;92.10;;;;;;2220389;64;20088;-46
2021/12/23 01:59:22;;;;;;;2.83;2.03;;;-17.20;92.40;;;;;;2220188;64;20108;-44
2021/12/23 02:01:54;;;;;;;2.20;0.83;;;-17.20;92.40;;;;;;2220321;64;20092;-45
2021/12/23 02:04:26;;;;;;;29.60;7.80;;;-17.20;92.90;;;;;;2220213;64;20550;-44
2021/12/23 02:06:58;;;;;;;34.03;10.63;;;-17.20;92.60;;;;;;2220371;64;20096;-45
2021/12/23 02:09:30;;;;;;;8.13;1.43;;;-17.10;92.30;;;;;;2220409;64;20119;-47
2021/12/23 02:12:01;;;;;;;5.73;3.23;;;-17.10;92.40;;;;;;2220549;64;20502;-46
2021/12/23 02:14:33;;;;;;;2.73;1.50;;;-17.20;92.30;;;;;;2220252;64;20548;-46
2021/12/23 02:17:05;;;;;;;7.23;3.20;;;-17.40;91.80;;;;;;2217114;64;20088;-44
2021/12/23 02:19:37;;;;;;;0.87;0.40;;;-17.40;91.90;;;;;;2220176;64;20132;-46
2021/12/23 02:22:09;;;;;;;7.43;1.90;;;-17.30;92.40;;;;;;2220388;64;20097;-44
2021/12/23 02:24:41;;;;;;;6.00;2.17;;;-17.40;91.90;;;;;;2220299;64;20123;-47
2021/12/23 02:27:12;;;;;;;10.37;3.63;;;-17.40;91.60;;;;;;2220344;64;20556;-44
2021/12/23 02:29:47;;;;;;;10.18;3.63;;;-17.50;91.20;;;;;;2220243;64;20127;-46
2021/12/23 02:32:20;;;;;;;10.17;2.87;;;-17.60;90.70;;;;;;2220330;64;20088;-45
2021/12/23 02:34:52;;;;;;;9.15;2.55;;;-17.50;90.90;;;;;;2216424;64;20572;-44
2021/12/23 02:37:24;;;;;;;5.37;2.00;;;-17.50;91.10;;;;;;2216981;64;20085;-44
2021/12/23 02:39:56;;;;;;;0.20;0.20;;;-17.50;91.10;;;;;;2219869;64;20177;-43
2021/12/23 02:42:27;;;;;;;4.47;1.83;;;-17.50;91.50;;;;;;2219904;64;20611;-45
2021/12/23 02:45:01;;;;;;;2.53;1.23;;;-17.60;91.50;;;;;;2220160;64;20174;-46
2021/12/23 02:47:33;;;;;;;8.55;2.55;;;-17.60;91.80;;;;;;2220107;64;20548;-44
2021/12/23 02:50:08;;;;;;;5.17;1.93;;;-17.60;91.10;;;;;;2220050;64;20093;-44
2021/12/23 02:52:40;;;;;;;4.73;1.70;;;-17.60;91.20;;;;;;2220071;64;20088;-42
2021/12/23 02:55:12;;;;;;;7.30;1.93;;;-17.60;91.50;;;;;;2218967;64;20096;-43
2021/12/23 02:57:44;;;;;;;7.67;3.10;;;-17.70;91.20;;;;;;2215925;64;20154;-43
2021/12/23 03:00:16;;;;;;;5.73;1.53;;;-17.80;91.10;;;;;;2211211;64;20128;-43
2021/12/23 03:02:48;;;;;;;9.33;2.63;;;-17.80;91.30;;;;;;2208298;64;20223;-44
2021/12/23 03:05:19;;;;;;;12.40;1.70;;;-17.90;91.30;;;;;;2208093;64;20112;-43
2021/12/23 03:07:51;;;;;;;3.77;1.30;;;-17.90;91.80;;;;;;2211289;64;20113;-44
2021/12/23 03:10:23;;;;;;;5.03;1.67;;;-17.80;92.10;;;;;;2208245;64;20532;-42
2021/12/23 03:12:55;;;;;;;4.33;2.07;;;-17.80;91.90;;;;;;2208129;64;20089;-44
2021/12/23 03:15:27;;;;;;;5.43;2.00;;;-17.90;91.40;;;;;;2207992;64;20500;-43
2021/12/23 03:17:59;;;;;;;6.00;2.00;;;-18.10;91.40;;;;;;2208395;64;20085;-42
2021/12/23 03:20:31;;;;;;;3.33;1.53;;;-18.10;91.60;;;;;;2208223;64;20094;-42
2021/12/23 03:23:03;;;;;;;2.07;0.67;;;-18.10;91.50;;;;;;2208223;64;20074;-42
2021/12/23 03:25:39;;;;;;;3.53;1.13;;;-18.00;91.90;;;;;;2209000;64;20097;-42
2021/12/23 03:28:11;;;;;;;2.03;0.70;;;-18.00;92.10;;;;;;2212147;64;20212;-43
2021/12/23 03:30:43;;;;;;;3.97;1.30;;;-18.00;91.90;;;;;;2213457;64;20084;-43
2021/12/23 03:33:15;;;;;;;0.47;0.47;;;-18.10;91.80;;;;;;2220150;64;20173;-44
2021/12/23 03:35:47;;;;;;;3.17;1.23;;;-18.00;91.90;;;;;;2217026;64;20096;-43
2021/12/23 03:38:21;;;;;;;3.53;1.40;;;-18.00;91.40;;;;;;2207811;64;20073;-44
2021/12/23 03:40:54;;;;;;;1.80;0.85;;;-18.20;91.30;;;;;;2208299;64;20093;-44
2021/12/23 03:43:28;;;;;;;0.60;0.40;;;-18.00;92.00;;;;;;2208185;64;20501;-42
2021/12/23 03:46:00;;;;;;;5.03;2.50;;;-18.10;91.60;;;;;;2208267;64;20074;-44
2021/12/23 03:48:33;;;;;;;13.53;6.50;;;-18.00;91.80;;;;;;2208071;64;20085;-43
2021/12/23 03:51:05;;;;;;;2.77;1.43;;;-18.10;91.50;;;;;;2211331;64;20086;-44
2021/12/23 03:53:36;;;;;;;1.17;0.47;;;-18.00;91.60;;;;;;2211313;64;20109;-43
2021/12/23 03:56:08;;;;;;;5.93;1.80;;;-18.10;91.80;;;;;;2208404;64;20218;-45
2021/12/23 03:58:40;;;;;;;3.70;0.70;;;-18.10;92.00;;;;;;2211109;64;20093;-44
2021/12/23 04:01:12;;;;;;;0.87;0.47;;;-18.20;91.90;;;;;;2208074;64;20165;-42
2021/12/23 04:03:44;;;;;;;1.30;0.50;;;-18.40;91.70;;;;;;2208083;64;20545;-44
2021/12/23 04:06:18;;;;;;;3.20;1.30;;;-18.40;91.90;;;;;;2208170;64;20097;-44
2021/12/23 04:08:50;;;;;;;4.13;1.77;;;-18.40;91.50;;;;;;2209649;64;20101;-43
2021/12/23 04:11:22;;;;;;;1.13;1.03;;;-18.50;91.50;;;;;;2210981;64;20087;-44
2021/12/23 04:13:55;;;;;;;0.82;0.35;;;-18.50;91.10;;;;;;2211205;64;20089;-43
2021/12/23 04:16:27;;;;;;;6.07;0.90;;;-18.60;90.40;;;;;;2211166;64;20104;-43
2021/12/23 04:18:59;;;;;;;8.20;1.60;;;-18.70;89.70;;;;;;2211173;64;20573;-44
2021/12/23 04:21:31;;;;;;;0.67;0.30;;;-18.70;90.30;;;;;;2211246;64;20093;-43
2021/12/23 04:24:03;;;;;;;0.93;0.53;;;-18.60;90.40;;;;;;2211101;64;20546;-43
2021/12/23 04:26:35;;;;;;;3.40;1.83;;;-18.60;90.20;;;;;;2211112;64;20167;-44
2021/12/23 04:29:07;;;;;;;0.40;0.40;;;-18.50;90.50;;;;;;2211080;64;20128;-44
2021/12/23 04:31:39;;;;;;;1.93;1.07;;;-18.70;89.50;;;;;;2211122;64;20097;-42
2021/12/23 04:34:11;;;;;;;0.07;0.07;;;-18.70;90.00;;;;;;2211145;64;20089;-43
2021/12/23 04:36:43;;;;;;;3.20;1.03;;;-18.70;89.60;;;;;;2211034;64;20576;-44
2021/12/23 04:39:17;;;;;;;29.77;5.63;;;-18.70;90.40;;;;;;2210977;64;20109;-44
2021/12/23 04:41:48;;;;;;;2.23;0.77;;;-18.80;89.70;;;;;;2215385;64;20171;-43
2021/12/23 04:44:20;;;;;;;2.10;0.80;;;-18.80;90.00;;;;;;2215698;64;20085;-43
2021/12/23 04:46:52;;;;;;;7.33;2.33;;;-18.70;90.60;;;;;;2215936;64;20103;-43
2021/12/23 04:49:24;;;;;;;5.07;1.37;;;-18.70;89.90;;;;;;2218258;64;20097;-42
2021/12/23 04:51:55;;;;;;;0.97;0.60;;;-18.80;88.90;;;;;;2223004;64;20081;-44
2021/12/23 04:54:27;;;;;;;1.90;0.30;;;-18.90;88.70;;;;;;2222928;64;20073;-43
2021/12/23 04:56:59;;;;;;;3.30;1.33;;;-19.00;87.80;;;;;;2222919;64;20537;-43
2021/12/23 04:59:31;;;;;;;1.90;0.97;;;-19.00;89.90;;;;;;2222798;64;20172;-43
2021/12/23 05:02:03;;;;;;;2.43;1.13;;;-19.00;88.90;;;;;;2222872;64;20103;-43
2021/12/23 05:04:35;;;;;;;6.03;1.53;;;-19.10;89.70;;;;;;2219703;64;20636;-42
2021/12/23 05:07:07;;;;;;;4.00;1.33;;;-19.00;90.50;;;;;;2222982;64;20092;-43
2021/12/23 05:09:41;;;;;;;2.57;1.03;;;-19.00;90.50;;;;;;2219842;64;20084;-45
2021/12/23 05:12:13;;;;;;;1.73;0.43;;;-19.10;90.20;;;;;;2222795;64;20144;-44
2021/12/23 05:14:44;;;;;;;8.97;2.03;;;-19.10;90.00;;;;;;2219846;64;20556;-43
2021/12/23 05:17:16;;;;;;;3.33;1.47;;;-19.10;90.70;;;;;;2223857;64;20081;-43
2021/12/23 05:19:48;;;;;;;4.37;1.50;;;-19.10;90.50;;;;;;2224204;64;20115;-43
2021/12/23 05:22:20;;;;;;;4.03;1.73;;;-19.10;90.70;;;;;;2223275;64;20155;-44
2021/12/23 05:24:52;;;;;;;1.47;1.37;;;-19.10;90.50;;;;;;2223492;64;20215;-42
2021/12/23 05:27:24;;;;;;;2.93;0.77;;;-19.20;90.30;;;;;;2219302;64;20159;-43
2021/12/23 05:29:56;;;;;;;5.73;1.10;;;-19.20;90.50;;;;;;2216563;64;20099;-44
2021/12/23 05:32:28;;;;;;;4.93;1.67;;;-19.20;90.50;;;;;;2216899;64;20226;-43
2021/12/23 05:35:00;;;;;;;3.17;1.33;;;-19.20;91.00;;;;;;2216672;64;20085;-43
2021/12/23 05:37:32;;;;;;;3.63;2.70;;;-19.20;90.50;;;;;;2216498;64;20462;-44
2021/12/23 05:40:05;;;;;;;4.80;1.80;;;-19.20;90.30;;;;;;2216328;64;20092;-44
2021/12/23 05:42:37;;;;;;;2.87;1.33;;;-19.20;90.00;;;;;;2219202;64;20209;-43
2021/12/23 05:45:09;;;;;;;0.23;0.20;;;-19.20;90.00;;;;;;2216185;64;20085;-43
2021/12/23 05:47:41;;;;;;;9.20;1.20;;;-19.10;89.90;;;;;;2213107;64;20092;-44
2021/12/23 05:50:13;;;;;;;0.10;0.10;;;-19.10;89.70;;;;;;2216239;64;20088;-43
2021/12/23 05:52:45;;;;;;;5.43;1.80;;;-19.10;89.70;;;;;;2216160;64;20127;-42
2021/12/23 05:55:17;;;;;;;7.97;1.77;;;-19.00;90.30;;;;;;2213032;64;20177;-44
2021/12/23 05:57:49;;;;;;;1.17;0.50;;;-19.00;90.10;;;;;;2219451;64;20080;-44
2021/12/23 06:00:25;;;;;;;0.40;0.33;;;-19.00;89.80;;;;;;2220040;64;20096;-44
2021/12/23 06:02:57;;;;;;;1.67;0.87;;;-19.00;89.60;;;;;;2213956;64;20099;-44
2021/12/23 06:05:29;;;;;;;0.80;0.70;;;-19.00;87.40;;;;;;2220191;64;20107;-43
2021/12/23 06:08:01;;;;;;;1.80;1.63;;;-19.00;88.90;;;;;;2220282;64;20085;-42
2021/12/23 06:10:33;;;;;;;1.17;0.47;;;-19.00;88.30;;;;;;2217387;64;20111;-43
2021/12/23 06:13:05;;;;;;;1.00;0.70;;;-19.00;88.00;;;;;;2223468;64;20108;-42
2021/12/23 06:15:37;;;;;;;4.33;2.17;;;-19.00;87.30;;;;;;2220331;64;20194;-42
2021/12/23 06:18:08;;;;;;;2.30;0.63;;;-19.00;86.70;;;;;;2217259;64;20077;-43
2021/12/23 06:20:40;;;;;;;7.87;1.77;;;-19.00;86.40;;;;;;2220187;64;20160;-42
2021/12/23 06:23:12;;;;;;;5.13;1.17;;;-18.90;87.90;;;;;;2220192;64;20465;-43
2021/12/23 06:25:47;;;;;;;6.23;1.30;;;-18.90;87.40;;;;;;2220460;64;20084;-43
2021/12/23 06:28:19;;;;;;;0.37;0.30;;;-18.80;87.90;;;;;;2219907;64;20546;-44
2021/12/23 06:30:52;;;;;;;2.13;1.47;;;-18.60;87.60;;;;;;2219814;64;20127;-44
2021/12/23 06:33:24;;;;;;;0.33;0.20;;;-18.60;85.20;;;;;;2223097;64;20087;-44
2021/12/23 06:35:55;;;;;;;3.37;0.90;;;-18.30;85.20;;;;;;2222862;64;20084;-44
2021/12/23 06:38:28;;;;;;;2.60;1.40;;;-18.20;84.40;;;;;;2223027;64;20099;-44
2021/12/23 06:40:59;;;;;;;1.13;0.93;;;-18.00;85.00;;;;;;2219789;64;20076;-45
2021/12/23 06:43:31;;;;;;;4.37;1.70;;;-17.90;84.00;;;;;;2219822;64;20076;-46
2021/12/23 06:46:03;;;;;;;1.57;0.50;;;-17.60;81.90;;;;;;2219905;64;20107;-44
2021/12/23 06:48:35;;;;;;;6.77;1.87;;;-18.00;81.60;;;;;;2219882;64;20100;-45
2021/12/23 06:51:07;;;;;;;2.43;0.93;;;-17.70;82.30;;;;;;2220002;64;20107;-46
2021/12/23 06:53:39;;;;;;;2.90;0.93;;;-17.60;82.90;;;;;;2222986;64;20151;-45
2021/12/23 06:56:13;;;;;;;0.40;0.40;;;-17.70;81.10;;;;;;2219803;64;20100;-47
2021/12/23 06:58:49;;;;;;;7.83;2.03;;;-17.70;79.70;;;;;;2219900;64;20117;-45
2021/12/23 07:01:21;;;;;;;3.17;1.00;;;-17.60;81.50;;;;;;2221382;64;20116;-44
2021/12/23 07:04:06;;;;;;;1.73;0.97;;;-17.60;80.40;;;;;;2219382;64;20099;-45
2021/12/23 07:06:46;;;;;;;;;;;-17.20;78.90;;;;;;2219546;64;20097;-45
2021/12/23 07:09:18;;;;;;;1.50;0.40;;;-17.00;78.00;;;;;;2215944;64;19995;-44
2021/12/23 07:11:49;;;;;;;5.10;1.30;;;-16.90;76.40;;;;;;2219183;64;20560;-44
2021/12/23 07:14:21;;;;;;;3.43;1.10;;;-17.00;76.00;;;;;;2219118;64;20589;-44
2021/12/23 07:16:53;;;;;;;9.03;2.00;;;-16.90;75.70;;;;;;2219107;64;20469;-44
2021/12/23 07:19:25;;;;;;;3.60;1.33;;;-16.80;76.40;;;;;;2219027;64;20568;-45
2021/12/23 07:21:57;;;;;;;5.93;2.23;;;-16.10;77.20;;;;;;2219142;64;20112;-47
2021/12/23 07:24:29;;;;;;;5.27;1.33;;;-16.40;73.10;;;;;;2219380;64;20243;-48
2021/12/23 07:27:01;;;;;;;3.67;1.37;;;-16.70;77.70;;;;;;2219294;64;20112;-48
2021/12/23 07:29:33;;;;;;;27.17;8.00;;;-16.90;75.60;;;;;;2219035;64;20175;-47
2021/12/23 07:32:06;;;;;;;1.53;0.87;;;-17.00;77.10;;;;;;2219104;64;20475;-48
2021/12/23 07:34:40;;;;;;;14.00;2.87;;;-17.30;77.60;;;;;;2219165;64;20162;-46
2021/12/23 07:37:12;;;;;;;3.15;1.20;;;-16.90;80.10;;;;;;2219095;64;20089;-44
2021/12/23 07:39:44;;;;;;;4.73;1.53;;;-16.80;76.80;;;;;;2215921;64;20093;-46
2021/12/23 07:42:18;;;;;;;4.47;1.67;;;-16.60;78.40;;;;;;2215911;64;20085;-47
2021/12/23 07:44:50;;;;;;;9.77;3.15;;;-15.90;74.80;;;;;;2215993;64;20092;-49
2021/12/23 07:47:22;;;;;;;2.90;0.93;;;-15.90;72.00;;;;;;2215934;64;20105;-47
2021/12/23 07:49:54;;;;;;;4.43;1.83;;;-16.20;69.70;;;;;;2219253;64;20108;-46
2021/12/23 07:52:26;;;;;;;5.60;1.90;;;-16.70;73.90;;;;;;2222972;64;20104;-45
2021/12/23 07:54:58;;;;;;;5.83;1.50;;;-16.50;73.40;;;;;;2219648;64;20089;-46
2021/12/23 07:57:30;;;;;;;6.60;2.00;;;-16.80;71.80;;;;;;2222840;64;20177;-44
2021/12/23 08:00:04;;;;;;;2.43;1.63;;;-16.80;74.50;;;;;;2219782;64;20508;-45
2021/12/23 08:02:36;;;;;;;7.28;2.10;;;-16.70;74.40;;;;;;2219798;64;20088;-45
2021/12/23 08:05:08;;;;;;;3.17;1.77;;;-16.40;74.00;;;;;;2219777;64;20085;-45
2021/12/23 08:07:40;;;;;;;2.00;0.97;;;-16.50;72.70;;;;;;2219998;64;20081;-44
2021/12/23 08:10:12;;;;;;;3.60;1.53;;;-17.00;74.20;;;;;;2222820;64;20484;-45
2021/12/23 08:12:44;;;;;;;5.03;1.37;;;-17.10;74.20;;;;;;2219861;64;20166;-45
2021/12/23 08:15:15;;;;;;;3.20;1.20;;;-17.30;74.70;;;;;;2222998;64;20096;-44
2021/12/23 08:17:47;;;;;;;4.40;1.40;;;-17.20;75.30;;;;;;2219779;64;20110;-45
2021/12/23 08:20:19;;;;;;;5.30;1.63;;;-16.60;72.50;;;;;;2220068;64;20210;-44
2021/12/23 08:22:51;;;;;;;4.73;1.50;;;-16.40;72.10;;;;;;2219837;64;20076;-44
2021/12/23 08:25:23;;;;;;;9.10;1.13;;;-16.80;72.50;;;;;;2219644;64;20088;-44
2021/12/23 08:27:55;;;;;;;6.83;1.67;;;-16.70;72.80;;;;;;2219806;64;20115;-43
2021/12/23 08:30:28;;;;;;;4.60;1.23;;;-17.00;73.20;;;;;;2222963;64;20084;-46
2021/12/23 08:33:00;;;;;;;6.97;1.70;;;-16.90;73.50;;;;;;2219785;64;20591;-44
2021/12/23 08:35:32;;;;;;;1.63;1.13;;;-16.80;72.60;;;;;;2219830;64;20160;-46
2021/12/23 08:38:04;;;;;;;6.87;1.83;;;-16.90;71.60;;;;;;2219770;64;20072;-45
2021/12/23 08:40:36;;;;;;;6.00;1.97;;;-16.60;73.00;;;;;;2219665;64;20100;-44
2021/12/23 08:43:08;;;;;;;5.07;1.90;;;-16.00;73.40;;;;;;2219612;64;20101;-45
2021/12/23 08:45:40;;;;;;;6.37;2.40;;;-15.90;68.80;;;;;;2219688;64;20111;-45
2021/12/23 08:48:12;;;;;;;3.53;1.60;;;-15.80;68.20;;;;;;2219545;64;20092;-48
2021/12/23 08:50:44;;;;;;;3.47;1.40;;;-16.20;68.00;;;;;;2219916;64;20440;-47
2021/12/23 08:53:16;;;;;;;3.63;1.90;;;-16.70;69.80;;;;;;2220161;64;20107;-47
2021/12/23 08:55:48;;;;;;;1.83;1.07;;;-17.10;71.80;;;;;;2220268;64;20107;-47
2021/12/23 08:58:20;;;;;;;3.90;1.47;;;-17.00;73.00;;;;;;2220369;64;20088;-47
2021/12/23 09:00:51;;;;;;;3.87;1.50;;;-17.20;74.10;;;;;;2220371;64;20089;-47
2021/12/23 09:03:23;;;;;;;3.50;1.77;;;-17.00;74.10;;;;;;2220271;64;20109;-49
2021/12/23 09:05:55;;;;;;;4.03;1.40;;;-17.20;74.50;;;;;;2220315;64;20169;-48
2021/12/23 09:08:27;;;;;;;5.40;1.80;;;-17.20;74.20;;;;;;2220344;64;20131;-47
2021/12/23 09:10:59;;;;;;;4.67;1.10;;;-16.90;74.50;;;;;;2217283;64;20076;-45
2021/12/23 09:13:31;;;;;;;5.20;1.60;;;-16.90;73.60;;;;;;2217371;64;20089;-47
2021/12/23 09:16:03;;;;;;;7.00;1.60;;;-17.50;74.70;;;;;;2220142;64;20111;-47
2021/12/23 09:18:35;;;;;;;7.63;2.47;;;-17.50;76.30;;;;;;2220366;64;20093;-45
2021/12/23 09:21:07;;;;;;;3.43;1.20;;;-16.90;75.00;;;;;;2220372;64;20096;-47
2021/12/23 09:23:39;;;;;;;4.23;1.90;;;-16.60;72.10;;;;;;2220243;64;20092;-46
2021/12/23 09:26:12;;;;;;;6.27;2.40;;;-16.50;70.90;;;;;;2220186;64;20469;-46
2021/12/23 09:34:14;;;;;;;4.80;1.40;;;-16.90;74.10;;;;;;2220368;64;20483;-47
2021/12/23 09:36:46;;;;;;;4.83;1.53;;;-16.90;70.10;;;;;;2220319;64;20173;-46
2021/12/23 09:39:18;;;;;;;3.87;1.53;;;-17.10;72.00;;;;;;2220269;64;20104;-47
2021/12/23 09:41:50;;;;;;;7.37;1.40;;;-17.20;72.30;;;;;;2220253;64;20540;-47
2021/12/23 09:44:22;;;;;;;5.90;1.80;;;-17.20;72.60;;;;;;2220436;64;20095;-48
2021/12/23 09:46:57;;;;;;;9.07;3.30;;;-17.40;72.00;;;;;;2217380;64;20157;-48
2021/12/23 09:49:30;;;;;;;4.03;1.70;;;-16.80;73.60;;;;;;2214328;64;20472;-47
2021/12/23 09:52:03;;;;;;;7.13;1.87;;;-16.20;70.30;;;;;;2217216;64;20448;-48
2021/12/23 09:54:36;;;;;;;4.87;1.57;;;-16.60;67.10;;;;;;2220424;64;20437;-47
2021/12/23 09:57:08;;;;;;;4.37;1.37;;;-16.70;68.00;;;;;;2217125;64;20108;-46
2021/12/23 09:59:41;;;;;;;1.97;1.00;;;-16.40;70.40;;;;;;2223171;64;20080;-45
2021/12/23 10:02:13;;;;;;;5.13;2.43;;;-16.40;69.90;;;;;;2217156;64;20633;-46
2021/12/23 10:04:44;;;;;;;8.93;2.47;;;-16.80;70.40;;;;;;2220193;64;20089;-45
2021/12/23 10:07:17;;;;;;;6.13;2.53;;;-16.40;69.10;;;;;;2220157;64;20111;-46
2021/12/23 10:33:12;;;;;;;4.43;1.20;;;-17.40;72.20;;;;;;2220236;64;20089;-46
2021/12/23 10:38:42;;;;;;;2.20;1.10;;;-17.00;71.80;;;;;;2220101;64;20096;-45
2021/12/23 10:41:20;;;;;;;3.47;1.30;;;-17.20;72.40;;;;;;2220065;64;20148;-47
2021/12/23 10:44:03;;;;;;;9.93;2.40;;;-17.20;73.10;;;;;;2223078;64;20089;-45
2021/12/23 10:46:36;;;;;;;4.73;1.60;;;-17.30;72.50;;;;;;2219963;64;20077;-48
2021/12/23 10:52:06;;;;;;;1.17;0.67;;;-17.30;71.60;;;;;;2220019;64;20158;-46
2021/12/23 11:00:49;;;;;;;4.77;1.30;;;-17.20;72.40;;;;;;2219993;64;20115;-46
2021/12/23 11:06:14;;;;;;;6.27;1.23;;;-17.40;73.50;;;;;;2219874;64;20471;-47
2021/12/23 11:32:26;;;;;;;3.93;1.57;;;-17.30;74.90;;;;;;2220087;64;20088;-46
2021/12/23 11:37:37;;;;;;;6.60;1.37;;;-17.70;76.30;;;;;;2219880;64;20151;-46
2021/12/23 11:40:12;;;;;;;7.40;1.37;;;-17.70;78.20;;;;;;2217413;64;20107;-45
2021/12/23 11:43:13;;;;;;;6.40;1.80;;;-17.80;79.60;;;;;;2219847;64;20206;-44
2021/12/23 11:45:45;;;;;;;3.63;1.47;;;-17.50;78.80;;;;;;2219749;64;20089;-44
2021/12/23 11:48:17;;;;;;;4.40;1.10;;;-17.50;76.50;;;;;;2219644;64;20631;-45
2021/12/23 11:51:06;;;;;;;6.70;1.30;;;-17.50;75.70;;;;;;2219849;64;20097;-45
2021/12/23 11:53:39;;;;;;;2.63;0.90;;;-17.70;76.20;;;;;;2216684;64;20096;-46
2021/12/23 11:56:11;;;;;;;6.07;1.83;;;-17.80;78.20;;;;;;2219730;64;20174;-44
2021/12/23 11:58:46;;;;;;;3.77;1.23;;;-17.90;78.40;;;;;;2216779;64;20107;-45
2021/12/23 12:01:20;;;;;;;3.33;1.20;;;-17.80;77.80;;;;;;2216649;64;20607;-45
2021/12/23 12:03:53;;;;;;;;;;;-17.70;77.50;;;;;;2220052;64;20092;-43
2021/12/23 12:06:35;;;;;;;2.43;0.83;;;-17.80;78.00;;;;;;2219634;64;19980;-46
2021/12/23 12:09:17;;;;;;;4.23;1.80;;;-17.80;78.70;;;;;;2219768;64;20160;-44
2021/12/23 12:11:58;;;;;;;7.03;1.77;;;-18.10;79.30;;;;;;2219840;64;20089;-44
2021/12/23 12:14:40;;;;;;;2.30;0.83;;;-18.00;81.00;;;;;;2219811;64;20092;-45
2021/12/23 12:17:28;;;;;;;6.17;0.80;;;-18.30;82.00;;;;;;2219938;64;20169;-45
2021/12/23 12:20:00;;;;;;;1.43;0.70;;;-18.40;83.00;;;;;;2219931;64;20101;-45
2021/12/23 12:22:48;;;;;;;2.07;0.70;;;-18.20;83.20;;;;;;2219934;64;20108;-43
2021/12/23 12:25:44;;;;;;;2.63;1.27;;;-18.20;82.90;;;;;;2216564;64;20485;-44
2021/12/23 12:28:21;;;;;;;4.40;1.23;;;-18.30;82.30;;;;;;2206293;64;20112;-44
2021/12/23 12:31:02;;;;;;;3.80;1.60;;;-18.30;82.40;;;;;;2208148;64;20096;-45
2021/12/23 12:33:37;;;;;;;10.90;1.60;;;-18.40;83.10;;;;;;2208071;64;20082;-44
2021/12/23 12:36:16;;;;;;;3.83;1.53;;;-18.40;83.60;;;;;;2204808;64;20566;-45
2021/12/23 12:38:55;;;;;;;7.33;1.97;;;-18.40;84.30;;;;;;2211062;64;20318;-44
2021/12/23 12:41:29;;;;;;;3.50;1.07;;;-18.50;84.20;;;;;;2211098;64;20461;-47
2021/12/23 12:44:08;;;;;;;;;;;-18.50;84.40;;;;;;2211893;64;20081;-44
2021/12/23 12:49:30;;;;;;;4.40;1.40;;;-18.60;85.30;;;;;;2211490;64;20099;-45
2021/12/23 12:52:23;;;;;;;1.67;0.97;;;-18.60;85.70;;;;;;2208854;64;20101;-45
2021/12/23 12:55:03;;;;;;;1.67;0.80;;;-18.70;86.10;;;;;;2208500;64;20218;-46
2021/12/23 12:57:47;;;;;;;4.30;1.27;;;-18.70;86.30;;;;;;2211765;64;20322;-44
2021/12/23 13:00:22;;;;;;;5.95;1.73;;;-18.80;86.70;;;;;;2211711;64;20660;-44
2021/12/23 13:03:03;;;;;;;2.43;0.97;;;-18.80;87.20;;;;;;2211673;64;20085;-44
2021/12/23 13:05:39;;;;;;;3.90;1.13;;;-18.90;87.60;;;;;;2206235;64;20620;-43
2021/12/23 13:08:24;;;;;;;4.63;2.20;;;-18.90;87.70;;;;;;2214832;64;20122;-45
2021/12/23 13:11:16;;;;;;;;;;;-19.00;87.90;;;;;;2215170;64;20564;-44
2021/12/23 13:13:59;;;;;;;6.60;1.37;;;-19.00;88.20;;;;;;2214598;64;19969;-44
2021/12/23 13:16:31;;;;;;;6.50;2.10;;;-19.10;88.70;;;;;;2214633;64;20073;-45
2021/12/23 13:19:18;;;;;;;2.43;1.60;;;-19.20;88.40;;;;;;2211540;64;20149;-45
2021/12/23 13:21:55;;;;;;;4.20;1.77;;;-19.20;89.20;;;;;;2214683;64;20153;-43
2021/12/23 13:24:27;;;;;;;2.67;1.53;;;-19.30;89.70;;;;;;2214779;64;20144;-43
2021/12/23 13:27:00;;;;;;;7.57;2.00;;;-19.30;90.10;;;;;;2214794;64;20097;-45
2021/12/23 13:29:35;;;;;;;4.47;2.07;;;-19.40;90.00;;;;;;2214592;64;20089;-44
2021/12/23 13:32:07;;;;;;;7.33;2.17;;;-19.30;90.30;;;;;;2214575;64;20157;-45
2021/12/23 13:34:39;;;;;;;4.97;1.47;;;-19.40;90.30;;;;;;2211642;64;20476;-45
2021/12/23 13:37:11;;;;;;;7.60;3.37;;;-19.40;90.40;;;;;;2215167;64;20105;-45
2021/12/23 13:39:43;;;;;;;9.13;3.03;;;-19.40;90.40;;;;;;2215388;64;20097;-48
2021/12/23 13:42:15;;;;;;;7.37;2.30;;;-19.50;90.50;;;;;;2216188;64;20081;-45
2021/12/23 13:44:49;;;;;;;5.93;2.03;;;-19.50;90.50;;;;;;2223303;64;20076;-45
2021/12/23 13:47:22;;;;;;;5.65;1.88;;;-19.50;90.60;;;;;;2223437;64;20103;-46
2021/12/23 13:49:55;;;;;;;1.80;1.43;;;-19.50;90.70;;;;;;2223165;64;20186;-45
2021/12/23 13:52:27;;;;;;;7.47;2.07;;;-19.50;90.80;;;;;;2220279;64;20096;-45
2021/12/23 13:55:16;;;;;;;6.53;2.87;;;-19.60;90.90;;;;;;2217226;64;20081;-47
2021/12/23 13:57:55;;;;;;;13.50;4.90;;;-19.60;91.10;;;;;;2223379;64;20205;-45
2021/12/23 14:00:33;;;;;;;9.07;4.20;;;-19.60;91.30;;;;;;2223317;64;20092;-45
2021/12/23 14:03:07;;;;;;;9.17;3.93;;;-19.70;91.40;;;;;;2219104;64;20077;-45
2021/12/23 14:05:42;;;;;;;10.85;3.03;;;-19.70;91.60;;;;;;2216095;64;20096;-46
2021/12/23 14:08:16;;;;;;;6.70;2.73;;;-19.80;91.70;;;;;;2216084;64;20198;-45
2021/12/23 14:10:48;;;;;;;8.75;2.42;;;-19.80;91.80;;;;;;2219186;64;20135;-45
2021/12/23 14:13:20;;;;;;;6.50;2.20;;;-19.80;91.80;;;;;;2215925;64;20081;-45
2021/12/23 14:15:52;;;;;;;3.93;1.20;;;-19.90;91.60;;;;;;2219033;64;20542;-47
2021/12/23 14:18:46;;;;;;;5.13;2.00;;;-19.90;91.50;;;;;;2219388;64;20089;-45
2021/12/23 14:24:11;;;;;;;4.90;1.50;;;-19.90;91.80;;;;;;2219098;64;20100;-46
2021/12/23 14:26:43;;;;;;;3.80;1.53;;;-19.90;91.90;;;;;;2215977;64;20100;-43
2021/12/23 14:29:15;;;;;;;5.30;2.10;;;-19.90;92.20;;;;;;2216086;64;20088;-45